createdAt,value
2023-01-20T00:00:36.192Z,-4.10
2023-01-20T00:03:03.974Z,-4.10
2023-01-20T00:05:31.751Z,-4.10
2023-01-20T00:08:00.858Z,-4.10
2023-01-20T00:10:28.601Z,-4.20
2023-01-20T00:12:56.340Z,-4.10
2023-01-20T00:15:24.083Z,-4.00
2023-01-20T00:17:51.823Z,-3.90
2023-01-20T00:20:19.737Z,-3.80
2023-01-20T00:22:47.474Z,-3.80
2023-01-20T00:25:16.817Z,-3.80
2023-01-20T00:27:44.614Z,-3.80
2023-01-20T00:30:13.491Z,-3.90
2023-01-20T00:32:45.327Z,-3.90
2023-01-20T00:35:14.062Z,-3.90
2023-01-20T00:37:44.319Z,-3.80
2023-01-20T00:40:13.435Z,-3.90
2023-01-20T00:42:42.523Z,-3.90
2023-01-20T00:45:10.874Z,-3.90
2023-01-20T00:47:38.670Z,-3.90
2023-01-20T00:50:07.122Z,-4.00
2023-01-20T00:52:34.884Z,-4.00
2023-01-20T00:55:02.855Z,-4.00
2023-01-20T00:57:30.715Z,-4.00
2023-01-20T00:59:59.810Z,-4.00
2023-01-20T01:02:27.566Z,-4.00
2023-01-20T01:04:55.301Z,-4.00
2023-01-20T01:07:23.038Z,-4.00
2023-01-20T01:09:50.794Z,-3.90
2023-01-20T01:12:18.550Z,-3.70
2023-01-20T01:14:46.299Z,-3.70
2023-01-20T01:17:15.372Z,-3.70
2023-01-20T01:19:43.273Z,-3.70
2023-01-20T01:22:11.017Z,-3.80
2023-01-20T01:24:38.979Z,-3.80
2023-01-20T01:27:07.273Z,-3.90
2023-01-20T01:29:35.044Z,-4.00
2023-01-20T01:32:02.786Z,-4.00
2023-01-20T01:34:32.077Z,-4.10
2023-01-20T01:37:00.197Z,-4.10
2023-01-20T01:39:28.820Z,-4.20
2023-01-20T01:41:56.572Z,-4.40
2023-01-20T01:44:27.371Z,-4.50
2023-01-20T01:46:55.527Z,-4.50
2023-01-20T01:49:27.434Z,-4.60
2023-01-20T01:52:00.310Z,-4.60
2023-01-20T01:54:32.427Z,-4.60
2023-01-20T01:57:01.654Z,-4.70
2023-01-20T01:59:29.536Z,-4.70
2023-01-20T02:01:57.622Z,-4.70
2023-01-20T02:04:27.409Z,-4.70
2023-01-20T02:06:59.509Z,-4.70
2023-01-20T02:09:28.784Z,-4.80
2023-01-20T02:11:59.565Z,-4.90
2023-01-20T02:14:32.234Z,-5.10
2023-01-20T02:17:06.005Z,-5.20
2023-01-20T02:20:14.618Z,-5.40
2023-01-20T02:22:53.271Z,-5.60
2023-01-20T02:25:45.418Z,-5.70
2023-01-20T02:28:45.097Z,-5.90
2023-01-20T02:31:39.809Z,-6.00
2023-01-20T02:34:16.345Z,-6.10
2023-01-20T02:36:49.038Z,-6.20
2023-01-20T02:39:27.615Z,-6.30
2023-01-20T02:41:59.553Z,-6.30
2023-01-20T02:44:42.120Z,-6.40
2023-01-20T02:47:16.106Z,-6.30
2023-01-20T02:49:53.124Z,-6.20
2023-01-20T02:52:24.801Z,-6.30
2023-01-20T02:54:56.399Z,-6.30
2023-01-20T02:57:28.713Z,-6.30
2023-01-20T02:59:59.725Z,-6.40
2023-01-20T03:02:30.436Z,-6.40
2023-01-20T03:05:08.256Z,-6.40
2023-01-20T03:07:39.757Z,-6.50
2023-01-20T03:10:12.998Z,-6.50
2023-01-20T03:12:45.610Z,-6.50
2023-01-20T03:15:14.547Z,-6.60
2023-01-20T03:17:42.499Z,-6.60
2023-01-20T03:20:13.026Z,-6.60
2023-01-20T03:22:40.904Z,-6.60
2023-01-20T03:25:10.535Z,-6.60
2023-01-20T03:27:38.418Z,-6.70
2023-01-20T03:30:12.975Z,-6.60
2023-01-20T03:32:42.232Z,-6.50
2023-01-20T03:35:12.101Z,-6.60
2023-01-20T03:37:39.951Z,-6.70
2023-01-20T03:40:09.622Z,-6.90
2023-01-20T03:42:43.976Z,-7.00
2023-01-20T03:45:17.860Z,-7.00
2023-01-20T03:47:54.362Z,-7.20
2023-01-20T03:50:33.733Z,-7.20
2023-01-20T03:53:08.429Z,-7.10
2023-01-20T03:55:42.526Z,-7.20
2023-01-20T03:58:13.086Z,-7.20
2023-01-20T04:00:45.472Z,-7.30
2023-01-20T04:03:18.930Z,-7.30
2023-01-20T04:05:49.559Z,-7.40
2023-01-20T04:08:18.923Z,-7.50
2023-01-20T04:10:49.357Z,-7.60
2023-01-20T04:13:17.596Z,-7.70
2023-01-20T04:15:48.093Z,-7.80
2023-01-20T04:18:17.907Z,-7.90
2023-01-20T04:20:49.221Z,-8.00
2023-01-20T04:23:22.001Z,-7.90
2023-01-20T04:25:49.935Z,-7.80
2023-01-20T04:28:17.776Z,-7.70
2023-01-20T04:30:45.699Z,-7.70
2023-01-20T04:33:13.590Z,-7.70
2023-01-20T04:35:41.384Z,-7.90
2023-01-20T04:38:10.601Z,-8.00
2023-01-20T04:40:38.352Z,-8.10
2023-01-20T04:43:06.119Z,-8.10
2023-01-20T04:45:33.871Z,-8.20
2023-01-20T04:48:01.603Z,-8.20
2023-01-20T04:50:29.351Z,-8.20
2023-01-20T04:52:58.929Z,-8.20
2023-01-20T04:55:29.963Z,-8.00
2023-01-20T04:57:57.697Z,-7.60
2023-01-20T05:00:25.725Z,-7.30
2023-01-20T05:02:53.629Z,-7.10
2023-01-20T05:05:21.383Z,-6.90
2023-01-20T05:07:53.266Z,-6.80
2023-01-20T05:10:21.158Z,-6.70
2023-01-20T05:12:50.279Z,-6.60
2023-01-20T05:15:18.178Z,-6.50
2023-01-20T05:17:45.905Z,-6.40
2023-01-20T05:20:14.503Z,-6.40
2023-01-20T05:22:42.353Z,-6.40
2023-01-20T05:25:10.558Z,-6.40
2023-01-20T05:27:38.988Z,-6.40
2023-01-20T05:30:09.760Z,-6.40
2023-01-20T05:32:37.500Z,-6.40
2023-01-20T05:35:05.723Z,-6.40
2023-01-20T05:37:33.471Z,-6.30
2023-01-20T05:40:01.243Z,-6.30
2023-01-20T05:42:28.980Z,-6.30
2023-01-20T05:44:56.719Z,-6.30
2023-01-20T05:47:25.967Z,-6.40
2023-01-20T05:49:53.760Z,-6.30
2023-01-20T05:52:21.537Z,-6.30
2023-01-20T05:54:49.300Z,-6.30
2023-01-20T05:57:18.300Z,-6.30
2023-01-20T05:59:47.595Z,-6.30
2023-01-20T06:02:18.645Z,-6.30
2023-01-20T06:04:48.105Z,-6.30
2023-01-20T06:07:16.487Z,-6.30
2023-01-20T06:09:44.287Z,-6.20
2023-01-20T06:12:12.013Z,-6.20
2023-01-20T06:14:39.764Z,-6.20
2023-01-20T06:17:07.563Z,-6.20
2023-01-20T06:19:35.315Z,-6.30
2023-01-20T06:22:04.576Z,-6.30
2023-01-20T06:24:32.326Z,-6.40
2023-01-20T06:27:00.265Z,-6.40
2023-01-20T06:29:28.011Z,-6.40
2023-01-20T06:31:55.882Z,-6.30
2023-01-20T06:34:23.759Z,-6.30
2023-01-20T06:36:51.506Z,-6.30
2023-01-20T06:39:20.583Z,-6.40
2023-01-20T06:41:48.382Z,-6.40
2023-01-20T06:44:17.231Z,-6.40
2023-01-20T06:46:48.190Z,-6.40
2023-01-20T06:49:16.337Z,-6.20
2023-01-20T06:51:44.399Z,-6.10
2023-01-20T06:54:12.169Z,-6.00
2023-01-20T06:56:41.266Z,-5.80
2023-01-20T06:59:10.133Z,-5.80
2023-01-20T07:01:38.258Z,-5.80
2023-01-20T07:04:06.568Z,-5.80
2023-01-20T07:06:36.007Z,-5.90
2023-01-20T07:09:03.820Z,-5.90
2023-01-20T07:11:32.761Z,-5.80
2023-01-20T07:14:02.092Z,-5.80
2023-01-20T07:16:30.162Z,-5.60
2023-01-20T07:18:58.283Z,-5.50
2023-01-20T07:21:26.824Z,-5.30
2023-01-20T07:23:54.739Z,-5.20
2023-01-20T07:26:24.221Z,-5.10
2023-01-20T07:28:52.068Z,-5.10
2023-01-20T07:31:23.844Z,-5.10
2023-01-20T07:33:52.064Z,-5.10
2023-01-20T07:36:20.245Z,-5.10
2023-01-20T07:38:49.281Z,-5.00
2023-01-20T07:41:19.677Z,-4.90
2023-01-20T07:43:49.649Z,-4.80
2023-01-20T07:46:17.809Z,-4.70
2023-01-20T07:48:46.926Z,-4.70
2023-01-20T07:51:16.928Z,-4.70
2023-01-20T07:53:46.703Z,-4.80
2023-01-20T07:56:16.435Z,-4.80
2023-01-20T07:58:45.209Z,-4.90
2023-01-20T08:01:15.079Z,-5.00
2023-01-20T08:03:43.423Z,-4.90
2023-01-20T08:06:14.559Z,-4.80
2023-01-20T08:08:42.404Z,-4.70
2023-01-20T08:11:12.758Z,-4.50
2023-01-20T08:13:41.088Z,-4.60
2023-01-20T08:16:11.445Z,-4.50
2023-01-20T08:18:39.694Z,-4.50
2023-01-20T08:21:08.745Z,-4.40
2023-01-20T08:23:38.611Z,-4.40
2023-01-20T08:26:07.722Z,-4.20
2023-01-20T08:28:37.217Z,-4.20
2023-01-20T08:31:06.568Z,-4.20
2023-01-20T08:33:34.571Z,-4.10
2023-01-20T08:36:07.641Z,-4.00
2023-01-20T08:38:36.972Z,-3.90
2023-01-20T08:41:08.122Z,-3.80
2023-01-20T08:43:35.906Z,-3.70
2023-01-20T08:46:06.472Z,-3.60
2023-01-20T08:48:34.988Z,-3.40
2023-01-20T08:51:05.263Z,-3.00
2023-01-20T08:53:33.021Z,-2.90
2023-01-20T08:56:05.643Z,-2.70
2023-01-20T08:58:33.639Z,-2.60
2023-01-20T09:01:01.706Z,-2.70
2023-01-20T09:03:31.082Z,-2.60
2023-01-20T09:06:03.081Z,-2.40
2023-01-20T09:08:31.180Z,-2.30
2023-01-20T09:11:04.917Z,-2.10
2023-01-20T09:13:32.781Z,-2.00
2023-01-20T09:16:00.653Z,-2.20
2023-01-20T09:18:28.808Z,-2.20
2023-01-20T09:20:58.427Z,-2.40
2023-01-20T09:23:26.275Z,-2.50
2023-01-20T09:25:54.075Z,-2.40
2023-01-20T09:28:23.182Z,-2.30
2023-01-20T09:30:51.149Z,-2.10
2023-01-20T09:33:18.943Z,-1.90
2023-01-20T09:35:54.404Z,-1.90
2023-01-20T09:38:39.912Z,-1.70
2023-01-20T09:41:35.407Z,-1.60
2023-01-20T09:44:20.529Z,-1.50
2023-01-20T09:47:18.267Z,-1.20
2023-01-20T09:50:17.850Z,-1.00
2023-01-20T09:53:04.651Z,-0.50
2023-01-20T09:55:40.889Z,-0.10
2023-01-20T09:58:14.836Z,0.10
2023-01-20T10:00:49.867Z,-0.10
2023-01-20T10:03:22.983Z,-0.10
2023-01-20T10:05:55.529Z,0.10
2023-01-20T10:08:30.153Z,0.10
2023-01-20T10:11:04.660Z,-0.40
2023-01-20T10:13:37.258Z,-0.60
2023-01-20T10:16:12.360Z,-0.80
2023-01-20T10:18:47.884Z,-0.50
2023-01-20T10:21:21.549Z,-0.50
2023-01-20T10:23:53.707Z,-0.20
2023-01-20T10:26:26.410Z,0.00
2023-01-20T10:28:59.815Z,0.50
2023-01-20T10:31:31.750Z,0.60
2023-01-20T10:34:08.802Z,0.60
2023-01-20T10:36:37.453Z,0.30
2023-01-20T10:39:12.762Z,0.30
2023-01-20T10:41:46.455Z,0.60
2023-01-20T10:44:16.548Z,0.70
2023-01-20T10:47:02.021Z,1.10
2023-01-20T10:49:53.310Z,1.20
2023-01-20T10:52:38.674Z,1.00
2023-01-20T10:55:20.133Z,0.80
2023-01-20T10:57:53.033Z,0.40
2023-01-20T11:00:24.801Z,0.70
2023-01-20T11:02:54.455Z,0.80
2023-01-20T11:05:25.501Z,0.60
2023-01-20T11:07:55.260Z,0.40
2023-01-20T11:10:27.313Z,0.40
2023-01-20T11:12:57.792Z,0.20
2023-01-20T11:15:30.067Z,0.60
2023-01-20T11:18:30.612Z,1.10
2023-01-20T11:21:01.708Z,1.30
2023-01-20T11:23:41.535Z,1.40
2023-01-20T11:26:21.516Z,1.30
2023-01-20T11:28:52.526Z,1.10
2023-01-20T11:31:21.478Z,1.20
2023-01-20T11:34:01.419Z,1.00
2023-01-20T11:36:30.043Z,0.80
2023-01-20T11:38:58.689Z,0.50
2023-01-20T11:41:28.362Z,0.30
2023-01-20T11:43:57.341Z,0.20
2023-01-20T11:46:30.871Z,-0.10
2023-01-20T11:49:19.379Z,-0.30
2023-01-20T11:51:50.187Z,-0.60
2023-01-20T11:54:20.272Z,-0.70
2023-01-20T11:56:52.650Z,-0.80
2023-01-20T11:59:27.927Z,-0.60
2023-01-20T12:02:00.656Z,-0.70
2023-01-20T12:04:48.024Z,-1.00
2023-01-20T12:07:20.628Z,-0.70
2023-01-20T12:09:53.466Z,-0.40
2023-01-20T12:12:30.512Z,-0.20
2023-01-20T12:15:03.760Z,0.00
2023-01-20T12:17:42.293Z,0.00
2023-01-20T12:20:20.570Z,-0.20
2023-01-20T12:22:58.824Z,0.00
2023-01-20T12:25:31.190Z,-0.10
2023-01-20T12:28:03.638Z,-0.30
2023-01-20T12:30:44.169Z,-0.60
2023-01-20T12:33:21.710Z,-0.50
2023-01-20T12:36:20.873Z,-0.60
2023-01-20T12:39:02.135Z,-0.50
2023-01-20T12:41:47.272Z,-0.40
2023-01-20T12:44:20.883Z,-0.50
2023-01-20T12:46:52.697Z,-0.50
2023-01-20T12:49:42.538Z,-0.60
2023-01-20T12:52:33.866Z,-0.70
2023-01-20T12:55:18.638Z,-0.80
2023-01-20T12:57:59.838Z,-0.70
2023-01-20T13:00:43.485Z,-0.30
2023-01-20T13:03:56.125Z,-0.20
2023-01-20T13:06:42.233Z,-0.40
2023-01-20T13:09:38.183Z,-0.70
2023-01-20T13:12:19.407Z,-0.80
2023-01-20T13:14:50.168Z,-0.80
2023-01-20T13:17:24.543Z,-0.80
2023-01-20T13:19:54.158Z,-0.90
2023-01-20T13:22:23.763Z,-1.00
2023-01-20T13:24:54.713Z,-1.00
2023-01-20T13:27:27.454Z,-1.10
2023-01-20T13:29:56.837Z,-1.00
2023-01-20T13:32:33.958Z,-1.00
2023-01-20T13:35:03.391Z,-1.00
2023-01-20T13:37:34.797Z,-1.00
2023-01-20T13:40:06.562Z,-1.00
2023-01-20T13:42:51.894Z,-1.00
2023-01-20T13:45:25.747Z,-1.20
2023-01-20T13:47:58.524Z,-1.20
2023-01-20T13:50:29.662Z,-1.20
2023-01-20T13:53:27.804Z,-1.10
2023-01-20T13:55:59.127Z,-1.20
2023-01-20T13:58:28.631Z,-1.20
2023-01-20T14:00:58.187Z,-1.20
2023-01-20T14:03:28.892Z,-1.10
2023-01-20T14:05:58.984Z,-1.10
2023-01-20T14:08:29.006Z,-1.10
2023-01-20T14:11:13.703Z,-1.20
2023-01-20T14:13:42.726Z,-1.30
2023-01-20T14:16:20.708Z,-1.40
2023-01-20T14:18:49.605Z,-1.50
2023-01-20T14:21:21.905Z,-1.50
2023-01-20T14:23:50.446Z,-1.60
2023-01-20T14:26:24.339Z,-1.70
2023-01-20T14:28:53.843Z,-1.90
2023-01-20T14:31:36.396Z,-1.90
2023-01-20T14:34:27.184Z,-1.90
2023-01-20T14:36:57.425Z,-1.90
2023-01-20T14:39:27.079Z,-1.90
2023-01-20T14:41:58.252Z,-1.90
2023-01-20T14:44:28.079Z,-2.10
2023-01-20T14:46:58.965Z,-2.20
2023-01-20T14:49:32.926Z,-2.20
2023-01-20T14:52:01.824Z,-2.20
2023-01-20T14:54:42.766Z,-2.20
2023-01-20T14:57:27.019Z,-2.20
2023-01-20T15:00:14.483Z,-2.30
2023-01-20T15:02:45.005Z,-2.40
2023-01-20T15:05:27.718Z,-2.50
2023-01-20T15:08:24.351Z,-2.60
2023-01-20T15:11:20.668Z,-2.70
2023-01-20T15:14:09.241Z,-2.80
2023-01-20T15:16:49.130Z,-2.90
2023-01-20T15:19:46.020Z,-3.00
2023-01-20T15:22:26.906Z,-3.00
2023-01-20T15:24:55.523Z,-3.10
2023-01-20T15:27:31.265Z,-3.20
2023-01-20T15:30:27.271Z,-3.20
2023-01-20T15:32:56.354Z,-3.30
2023-01-20T15:35:26.833Z,-3.30
2023-01-20T15:37:55.504Z,-3.20
2023-01-20T15:40:25.140Z,-3.20
2023-01-20T15:42:53.429Z,-3.30
2023-01-20T15:45:21.292Z,-3.50
2023-01-20T15:47:50.420Z,-3.60
2023-01-20T15:50:20.737Z,-3.70
2023-01-20T15:52:48.918Z,-3.80
2023-01-20T15:55:18.326Z,-4.00
2023-01-20T15:57:48.611Z,-4.10
2023-01-20T16:00:20.440Z,-4.30
2023-01-20T16:02:48.302Z,-4.40
2023-01-20T16:05:17.999Z,-4.50
2023-01-20T16:07:47.466Z,-4.60
2023-01-20T16:10:18.151Z,-4.80
2023-01-20T16:12:46.573Z,-4.90
2023-01-20T16:15:16.168Z,-5.10
2023-01-20T16:17:44.054Z,-5.10
2023-01-20T16:20:20.667Z,-5.30
2023-01-20T16:22:48.454Z,-5.30
2023-01-20T16:25:16.471Z,-5.20
2023-01-20T16:27:44.542Z,-5.20
2023-01-20T16:30:17.026Z,-5.30
2023-01-20T16:32:46.277Z,-5.30
2023-01-20T16:35:14.857Z,-5.30
2023-01-20T16:37:46.519Z,-5.30
2023-01-20T16:40:15.786Z,-5.30
2023-01-20T16:42:43.890Z,-5.40
2023-01-20T16:45:23.514Z,-5.40
2023-01-20T16:47:51.863Z,-5.60
2023-01-20T16:50:19.930Z,-5.70
2023-01-20T16:52:49.238Z,-5.70
2023-01-20T16:55:17.075Z,-5.70
2023-01-20T16:57:45.165Z,-5.70
2023-01-20T17:00:18.840Z,-5.80
2023-01-20T17:02:51.171Z,-5.80
2023-01-20T17:05:22.264Z,-5.80
2023-01-20T17:07:51.533Z,-5.80
2023-01-20T17:10:20.238Z,-5.80
2023-01-20T17:12:48.961Z,-5.80
2023-01-20T17:15:16.971Z,-5.80
2023-01-20T17:17:48.182Z,-6.00
2023-01-20T17:20:17.582Z,-6.10
2023-01-20T17:22:45.871Z,-6.20
2023-01-20T17:25:17.925Z,-6.20
2023-01-20T17:27:45.989Z,-6.20
2023-01-20T17:30:14.775Z,-6.20
2023-01-20T17:32:46.978Z,-6.30
2023-01-20T17:35:14.975Z,-6.40
2023-01-20T17:37:42.948Z,-6.40
2023-01-20T17:40:12.117Z,-6.40
2023-01-20T17:42:43.452Z,-6.40
2023-01-20T17:45:12.190Z,-6.40
2023-01-20T17:47:39.961Z,-6.40
2023-01-20T17:50:08.199Z,-6.40
2023-01-20T17:52:35.952Z,-6.50
2023-01-20T17:55:03.783Z,-6.50
2023-01-20T17:57:32.524Z,-6.50
2023-01-20T18:00:01.668Z,-6.50
2023-01-20T18:02:29.481Z,-6.50
2023-01-20T18:04:57.312Z,-6.60
2023-01-20T18:07:25.070Z,-6.60
2023-01-20T18:09:52.944Z,-6.70
2023-01-20T18:12:21.537Z,-6.70
2023-01-20T18:14:49.387Z,-6.60
2023-01-20T18:17:18.527Z,-6.60
2023-01-20T18:19:46.656Z,-6.60
2023-01-20T18:22:15.091Z,-6.50
2023-01-20T18:24:42.915Z,-6.50
2023-01-20T18:27:10.680Z,-6.50
2023-01-20T18:29:38.435Z,-6.60
2023-01-20T18:32:06.606Z,-6.60
2023-01-20T18:34:35.836Z,-6.50
2023-01-20T18:37:03.588Z,-6.50
2023-01-20T18:39:31.495Z,-6.60
2023-01-20T18:41:59.293Z,-6.60
2023-01-20T18:44:27.071Z,-6.60
2023-01-20T18:46:54.860Z,-6.50
2023-01-20T18:49:22.816Z,-6.50
2023-01-20T18:51:51.928Z,-6.50
2023-01-20T18:54:21.801Z,-6.40
2023-01-20T18:56:49.609Z,-6.50
2023-01-20T18:59:17.435Z,-6.50
2023-01-20T19:01:45.246Z,-6.60
2023-01-20T19:04:13.926Z,-6.60
2023-01-20T19:06:43.825Z,-6.40
2023-01-20T19:09:13.500Z,-6.40
2023-01-20T19:11:42.760Z,-6.50
2023-01-20T19:14:13.569Z,-6.70
2023-01-20T19:16:45.036Z,-6.80
2023-01-20T19:19:13.449Z,-6.90
2023-01-20T19:21:41.237Z,-6.90
2023-01-20T19:24:11.829Z,-7.00
2023-01-20T19:26:40.932Z,-7.10
2023-01-20T19:29:17.176Z,-7.30
2023-01-20T19:31:45.906Z,-7.40
2023-01-20T19:34:14.058Z,-7.40
2023-01-20T19:36:41.847Z,-7.40
2023-01-20T19:39:09.618Z,-7.40
2023-01-20T19:41:38.854Z,-7.50
2023-01-20T19:44:08.313Z,-7.70
2023-01-20T19:46:39.326Z,-7.90
2023-01-20T19:49:07.772Z,-8.10
2023-01-20T19:51:36.325Z,-8.10
2023-01-20T19:54:05.441Z,-8.10
2023-01-20T19:56:35.231Z,-8.00
2023-01-20T19:59:03.203Z,-8.00
2023-01-20T20:01:33.653Z,-8.00
2023-01-20T20:04:06.259Z,-8.00
2023-01-20T20:06:35.402Z,-8.30
2023-01-20T20:09:05.854Z,-8.40
2023-01-20T20:11:34.256Z,-8.30
2023-01-20T20:14:03.489Z,-8.30
2023-01-20T20:16:35.188Z,-8.30
2023-01-20T20:19:03.468Z,-8.20
2023-01-20T20:21:31.273Z,-8.10
2023-01-20T20:24:00.251Z,-7.80
2023-01-20T20:26:30.090Z,-7.80
2023-01-20T20:28:58.981Z,-7.90
2023-01-20T20:31:29.138Z,-8.00
2023-01-20T20:33:59.430Z,-8.00
2023-01-20T20:36:30.764Z,-7.80
2023-01-20T20:38:59.233Z,-7.70
2023-01-20T20:41:29.189Z,-7.80
2023-01-20T20:43:57.527Z,-8.00
2023-01-20T20:46:25.950Z,-7.80
2023-01-20T20:48:54.587Z,-7.20
2023-01-20T20:51:24.247Z,-7.10
2023-01-20T20:53:55.704Z,-7.20
2023-01-20T20:56:24.626Z,-7.50
2023-01-20T20:59:01.342Z,-8.00
2023-01-20T21:01:31.163Z,-8.40
2023-01-20T21:04:00.372Z,-8.70
2023-01-20T21:06:30.424Z,-8.80
2023-01-20T21:08:59.480Z,-8.90
2023-01-20T21:11:27.699Z,-9.00
2023-01-20T21:13:56.055Z,-9.00
2023-01-20T21:16:25.248Z,-9.00
2023-01-20T21:18:55.932Z,-8.80
2023-01-20T21:21:24.317Z,-8.90
2023-01-20T21:23:54.910Z,-8.90
2023-01-20T21:26:24.229Z,-8.90
2023-01-20T21:28:52.170Z,-8.70
2023-01-20T21:31:22.641Z,-8.80
2023-01-20T21:33:54.420Z,-8.90
2023-01-20T21:36:22.428Z,-9.10
2023-01-20T21:38:50.552Z,-9.30
2023-01-20T21:41:20.253Z,-9.30
2023-01-20T21:44:06.473Z,-9.20
2023-01-20T21:46:38.692Z,-9.20
2023-01-20T21:49:25.009Z,-8.80
2023-01-20T21:52:10.651Z,-8.60
2023-01-20T21:54:39.675Z,-8.70
2023-01-20T21:57:09.682Z,-8.90
2023-01-20T21:59:37.859Z,-9.10
2023-01-20T22:02:05.976Z,-9.10
2023-01-20T22:04:35.503Z,-9.20
2023-01-20T22:07:03.258Z,-9.20
2023-01-20T22:09:31.014Z,-9.30
2023-01-20T22:11:58.782Z,-9.30
2023-01-20T22:14:27.885Z,-9.40
2023-01-20T22:16:55.670Z,-9.30
2023-01-20T22:19:23.433Z,-9.20
2023-01-20T22:21:51.597Z,-9.20
2023-01-20T22:24:19.515Z,-9.20
2023-01-20T22:26:48.188Z,-9.20
2023-01-20T22:29:16.321Z,-9.20
2023-01-20T22:31:45.535Z,-9.10
2023-01-20T22:34:14.035Z,-9.00
2023-01-20T22:36:41.857Z,-9.00
2023-01-20T22:39:11.733Z,-9.00
2023-01-20T22:41:39.761Z,-9.10
2023-01-20T22:44:07.602Z,-9.20
2023-01-20T22:46:35.457Z,-9.30
2023-01-20T22:49:04.687Z,-9.20
2023-01-20T22:51:32.528Z,-9.20
2023-01-20T22:54:01.807Z,-9.20
2023-01-20T22:56:31.096Z,-9.00
2023-01-20T22:58:59.654Z,-8.90
2023-01-20T23:01:29.220Z,-8.80
2023-01-20T23:03:58.318Z,-8.90
2023-01-20T23:06:28.898Z,-9.10
2023-01-20T23:08:56.876Z,-9.30
2023-01-20T23:11:25.140Z,-9.40
2023-01-20T23:13:53.981Z,-9.30
2023-01-20T23:16:23.547Z,-9.60
2023-01-20T23:18:52.308Z,-9.50
2023-01-20T23:21:21.111Z,-9.60
2023-01-20T23:23:54.203Z,-9.60
2023-01-20T23:26:24.149Z,-9.70
2023-01-20T23:28:53.447Z,-9.90
2023-01-20T23:31:21.588Z,-9.90
2023-01-20T23:33:49.549Z,-9.90
2023-01-20T23:36:19.907Z,-9.80
2023-01-20T23:38:48.392Z,-9.80
2023-01-20T23:41:17.799Z,-10.00
2023-01-20T23:43:45.606Z,-10.00
2023-01-20T23:46:13.484Z,-10.10
2023-01-20T23:48:41.311Z,-10.10
2023-01-20T23:51:09.107Z,-10.10
2023-01-20T23:53:40.269Z,-10.00
2023-01-20T23:56:11.741Z,-10.10
2023-01-20T23:58:41.073Z,-10.10
